Terminal Aerodrome Forecast
Issued by NWS Omaha/Valley, NE

Home | Current Version | Previous Version | Graphics & Text | Print | Product List | Glossary On
Versions: 1 2 3 4 5 6 7 8 9 10 11 12 13 14 15 16 17 18 19 20 21 22 23 24 25 26 27 28 29 30 31 32 33 34
530
FTUS43 KOAX 230102 AAA
TAFOFK
TAF AMD
KOFK 230102Z 2301/2324 17014KT P6SM BKN250
     FM230500 18014KT P6SM SCT250 WS020/19045KT
     FM231000 18011KT P6SM SCT200 WS020/21040KT
     FM231200 18011KT P6SM BKN200
     FM231600 17015G23KT P6SM BKN090=

USA.gov is the U.S. government's official web portal to all federal, state and local government web resources and services.